sensor_id;sensor_type;location;lat;lon;timestamp;temperature;humidity
41756;DHT22;27435;48.480;9.258;2022-08-19T00:01:33;18.60;99.00
41756;DHT22;27435;48.480;9.258;2022-08-19T00:04:03;18.60;99.00
41756;DHT22;27435;48.480;9.258;2022-08-19T00:06:29;18.60;99.00
41756;DHT22;27435;48.480;9.258;2022-08-19T00:08:56;18.60;99.00
41756;DHT22;27435;48.480;9.258;2022-08-19T00:11:22;18.60;99.00
41756;DHT22;27435;48.480;9.258;2022-08-19T00:13:49;18.60;99.00
41756;DHT22;27435;48.480;9.258;2022-08-19T00:16:16;18.70;99.00
41756;DHT22;27435;48.480;9.258;2022-08-19T00:18:44;18.70;99.00
41756;DHT22;27435;48.480;9.258;2022-08-19T00:21:10;18.60;99.00
41756;DHT22;27435;48.480;9.258;2022-08-19T00:23:36;18.60;99.00
41756;DHT22;27435;48.480;9.258;2022-08-19T00:26:05;18.40;99.00
41756;DHT22;27435;48.480;9.258;2022-08-19T00:28:31;18.40;99.00
41756;DHT22;27435;48.480;9.258;2022-08-19T00:30:57;18.40;99.00
41756;DHT22;27435;48.480;9.258;2022-08-19T00:33:22;18.40;99.00
41756;DHT22;27435;48.480;9.258;2022-08-19T00:35:48;18.30;99.00
41756;DHT22;27435;48.480;9.258;2022-08-19T00:38:13;18.30;99.00
41756;DHT22;27435;48.480;9.258;2022-08-19T00:40:40;18.30;99.00
41756;DHT22;27435;48.480;9.258;2022-08-19T00:43:09;18.20;99.00
41756;DHT22;27435;48.480;9.258;2022-08-19T00:45:35;18.20;99.00
41756;DHT22;27435;48.480;9.258;2022-08-19T00:48:02;18.20;99.00
41756;DHT22;27435;48.480;9.258;2022-08-19T00:50:30;18.30;99.00
41756;DHT22;27435;48.480;9.258;2022-08-19T00:52:56;18.40;99.00
41756;DHT22;27435;48.480;9.258;2022-08-19T00:55:26;18.40;99.00
41756;DHT22;27435;48.480;9.258;2022-08-19T00:58:09;18.40;99.00
41756;DHT22;27435;48.480;9.258;2022-08-19T01:00:36;18.40;99.00
41756;DHT22;27435;48.480;9.258;2022-08-19T01:03:09;18.40;99.00
41756;DHT22;27435;48.480;9.258;2022-08-19T01:05:35;18.40;99.00
41756;DHT22;27435;48.480;9.258;2022-08-19T01:08:03;18.30;99.00
41756;DHT22;27435;48.480;9.258;2022-08-19T01:10:33;18.30;99.00
41756;DHT22;27435;48.480;9.258;2022-08-19T01:13:01;18.40;99.00
41756;DHT22;27435;48.480;9.258;2022-08-19T01:15:31;18.40;99.00
41756;DHT22;27435;48.480;9.258;2022-08-19T01:18:00;18.40;99.00
41756;DHT22;27435;48.480;9.258;2022-08-19T01:20:26;18.30;99.00
41756;DHT22;27435;48.480;9.258;2022-08-19T01:22:55;18.20;99.00
41756;DHT22;27435;48.480;9.258;2022-08-19T01:25:45;18.20;99.00
41756;DHT22;27435;48.480;9.258;2022-08-19T01:28:19;18.20;99.00
41756;DHT22;27435;48.480;9.258;2022-08-19T01:30:46;18.20;99.00
41756;DHT22;27435;48.480;9.258;2022-08-19T01:33:12;18.10;99.00
41756;DHT22;27435;48.480;9.258;2022-08-19T01:35:38;18.00;99.00
41756;DHT22;27435;48.480;9.258;2022-08-19T01:38:07;18.00;99.00
41756;DHT22;27435;48.480;9.258;2022-08-19T01:40:35;18.10;99.00
41756;DHT22;27435;48.480;9.258;2022-08-19T01:43:02;18.20;99.00
41756;DHT22;27435;48.480;9.258;2022-08-19T01:45:30;18.30;99.00
41756;DHT22;27435;48.480;9.258;2022-08-19T01:47:57;18.30;99.00
41756;DHT22;27435;48.480;9.258;2022-08-19T01:50:23;18.20;99.00
41756;DHT22;27435;48.480;9.258;2022-08-19T01:52:49;18.30;99.00
41756;DHT22;27435;48.480;9.258;2022-08-19T01:55:18;18.30;99.00
41756;DHT22;27435;48.480;9.258;2022-08-19T01:57:50;18.30;99.00
41756;DHT22;27435;48.480;9.258;2022-08-19T02:00:18;18.30;99.00
41756;DHT22;27435;48.480;9.258;2022-08-19T02:02:44;18.30;99.00
41756;DHT22;27435;48.480;9.258;2022-08-19T02:05:11;18.30;99.00
41756;DHT22;27435;48.480;9.258;2022-08-19T02:07:39;18.30;99.00
41756;DHT22;27435;48.480;9.258;2022-08-19T02:10:07;18.30;99.00
41756;DHT22;27435;48.480;9.258;2022-08-19T02:12:33;18.30;99.00
41756;DHT22;27435;48.480;9.258;2022-08-19T02:14:59;18.20;99.00
41756;DHT22;27435;48.480;9.258;2022-08-19T02:17:27;18.20;99.00
41756;DHT22;27435;48.480;9.258;2022-08-19T02:19:54;18.10;99.00
41756;DHT22;27435;48.480;9.258;2022-08-19T02:22:20;18.10;99.00
41756;DHT22;27435;48.480;9.258;2022-08-19T02:24:46;18.10;99.00
41756;DHT22;27435;48.480;9.258;2022-08-19T02:27:13;18.10;99.00
41756;DHT22;27435;48.480;9.258;2022-08-19T02:29:39;18.00;99.00
41756;DHT22;27435;48.480;9.258;2022-08-19T02:32:05;17.90;99.00
41756;DHT22;27435;48.480;9.258;2022-08-19T02:34:31;17.90;99.00
41756;DHT22;27435;48.480;9.258;2022-08-19T02:36:56;18.00;99.00
41756;DHT22;27435;48.480;9.258;2022-08-19T02:39:22;18.00;99.00
41756;DHT22;27435;48.480;9.258;2022-08-19T02:41:48;17.90;99.00
41756;DHT22;27435;48.480;9.258;2022-08-19T02:44:15;17.80;99.00
41756;DHT22;27435;48.480;9.258;2022-08-19T02:46:40;17.90;99.00
41756;DHT22;27435;48.480;9.258;2022-08-19T02:49:07;18.00;99.00
41756;DHT22;27435;48.480;9.258;2022-08-19T02:51:36;18.10;99.00
41756;DHT22;27435;48.480;9.258;2022-08-19T02:54:03;18.00;99.00
41756;DHT22;27435;48.480;9.258;2022-08-19T02:56:29;17.90;99.00
41756;DHT22;27435;48.480;9.258;2022-08-19T02:58:56;17.90;99.00
41756;DHT22;27435;48.480;9.258;2022-08-19T03:01:26;18.00;99.00
41756;DHT22;27435;48.480;9.258;2022-08-19T03:03:53;18.00;99.00
41756;DHT22;27435;48.480;9.258;2022-08-19T03:06:19;18.00;99.00
41756;DHT22;27435;48.480;9.258;2022-08-19T03:08:47;18.00;99.00
41756;DHT22;27435;48.480;9.258;2022-08-19T03:11:17;18.00;99.00
41756;DHT22;27435;48.480;9.258;2022-08-19T03:13:43;18.00;99.00
41756;DHT22;27435;48.480;9.258;2022-08-19T03:16:10;18.00;99.00
41756;DHT22;27435;48.480;9.258;2022-08-19T03:18:36;18.00;99.00
41756;DHT22;27435;48.480;9.258;2022-08-19T03:21:02;18.00;99.00
41756;DHT22;27435;48.480;9.258;2022-08-19T03:23:28;18.00;99.00
41756;DHT22;27435;48.480;9.258;2022-08-19T03:25:54;17.90;99.00
41756;DHT22;27435;48.480;9.258;2022-08-19T03:28:20;17.90;99.00
41756;DHT22;27435;48.480;9.258;2022-08-19T03:31:04;17.90;99.00
41756;DHT22;27435;48.480;9.258;2022-08-19T03:33:32;17.90;99.00
41756;DHT22;27435;48.480;9.258;2022-08-19T03:36:13;17.90;99.00
41756;DHT22;27435;48.480;9.258;2022-08-19T03:38:45;17.80;99.00
41756;DHT22;27435;48.480;9.258;2022-08-19T03:41:23;17.80;99.00
41756;DHT22;27435;48.480;9.258;2022-08-19T03:43:49;17.80;99.00
41756;DHT22;27435;48.480;9.258;2022-08-19T03:46:17;17.80;99.00
41756;DHT22;27435;48.480;9.258;2022-08-19T03:48:46;17.80;99.00
41756;DHT22;27435;48.480;9.258;2022-08-19T03:51:24;17.80;99.00
41756;DHT22;27435;48.480;9.258;2022-08-19T03:53:52;17.70;99.00
41756;DHT22;27435;48.480;9.258;2022-08-19T03:56:18;17.80;99.00
41756;DHT22;27435;48.480;9.258;2022-08-19T03:58:44;17.90;99.00
41756;DHT22;27435;48.480;9.258;2022-08-19T04:01:17;17.90;99.00
41756;DHT22;27435;48.480;9.258;2022-08-19T04:03:44;17.90;99.00
41756;DHT22;27435;48.480;9.258;2022-08-19T04:08:39;17.90;99.00
41756;DHT22;27435;48.480;9.258;2022-08-19T04:11:10;17.90;99.00
41756;DHT22;27435;48.480;9.258;2022-08-19T04:13:35;17.90;99.00
41756;DHT22;27435;48.480;9.258;2022-08-19T04:16:01;17.90;99.00
41756;DHT22;27435;48.480;9.258;2022-08-19T04:18:27;17.90;99.00
41756;DHT22;27435;48.480;9.258;2022-08-19T04:20:55;17.70;99.00
41756;DHT22;27435;48.480;9.258;2022-08-19T04:23:20;17.70;99.00
41756;DHT22;27435;48.480;9.258;2022-08-19T04:25:46;17.80;99.00
41756;DHT22;27435;48.480;9.258;2022-08-19T04:28:12;17.90;99.00
41756;DHT22;27435;48.480;9.258;2022-08-19T04:30:44;17.80;99.00
41756;DHT22;27435;48.480;9.258;2022-08-19T04:33:11;17.70;99.00
41756;DHT22;27435;48.480;9.258;2022-08-19T04:35:42;17.70;99.00
41756;DHT22;27435;48.480;9.258;2022-08-19T04:38:09;17.70;99.00
41756;DHT22;27435;48.480;9.258;2022-08-19T04:40:44;17.80;99.00
41756;DHT22;27435;48.480;9.258;2022-08-19T04:43:28;17.80;99.00
41756;DHT22;27435;48.480;9.258;2022-08-19T04:45:54;17.80;99.00
41756;DHT22;27435;48.480;9.258;2022-08-19T04:48:20;17.70;99.00
41756;DHT22;27435;48.480;9.258;2022-08-19T04:50:51;17.60;99.00
41756;DHT22;27435;48.480;9.258;2022-08-19T04:53:22;17.60;99.00
41756;DHT22;27435;48.480;9.258;2022-08-19T04:55:47;17.70;99.00
41756;DHT22;27435;48.480;9.258;2022-08-19T04:58:13;17.70;99.00
41756;DHT22;27435;48.480;9.258;2022-08-19T05:00:39;17.60;99.00
41756;DHT22;27435;48.480;9.258;2022-08-19T05:03:05;17.80;99.00
41756;DHT22;27435;48.480;9.258;2022-08-19T05:05:31;17.80;99.00
41756;DHT22;27435;48.480;9.258;2022-08-19T05:07:57;17.80;99.00
41756;DHT22;27435;48.480;9.258;2022-08-19T05:10:23;17.80;99.00
41756;DHT22;27435;48.480;9.258;2022-08-19T05:12:49;17.80;99.00
41756;DHT22;27435;48.480;9.258;2022-08-19T05:15:16;17.90;99.00
41756;DHT22;27435;48.480;9.258;2022-08-19T05:17:42;17.90;99.00
41756;DHT22;27435;48.480;9.258;2022-08-19T05:20:27;17.90;99.00
41756;DHT22;27435;48.480;9.258;2022-08-19T05:23:22;17.90;99.00
41756;DHT22;27435;48.480;9.258;2022-08-19T05:25:48;17.90;99.00
41756;DHT22;27435;48.480;9.258;2022-08-19T05:28:14;17.90;99.00
41756;DHT22;27435;48.480;9.258;2022-08-19T05:30:40;17.90;99.00
41756;DHT22;27435;48.480;9.258;2022-08-19T05:33:06;18.10;99.00
41756;DHT22;27435;48.480;9.258;2022-08-19T05:35:36;18.20;99.00
41756;DHT22;27435;48.480;9.258;2022-08-19T05:38:02;18.10;99.00
41756;DHT22;27435;48.480;9.258;2022-08-19T05:40:28;17.90;99.00
41756;DHT22;27435;48.480;9.258;2022-08-19T05:42:54;17.90;99.00
41756;DHT22;27435;48.480;9.258;2022-08-19T05:45:20;18.00;99.00
41756;DHT22;27435;48.480;9.258;2022-08-19T05:47:47;18.00;99.00
41756;DHT22;27435;48.480;9.258;2022-08-19T05:50:13;18.10;99.00
41756;DHT22;27435;48.480;9.258;2022-08-19T05:52:39;18.20;99.00
41756;DHT22;27435;48.480;9.258;2022-08-19T05:55:05;18.10;99.00
41756;DHT22;27435;48.480;9.258;2022-08-19T05:57:31;18.30;99.00
41756;DHT22;27435;48.480;9.258;2022-08-19T05:59:57;18.30;99.00
41756;DHT22;27435;48.480;9.258;2022-08-19T06:02:26;18.40;99.00
41756;DHT22;27435;48.480;9.258;2022-08-19T06:04:52;18.40;99.00
41756;DHT22;27435;48.480;9.258;2022-08-19T06:07:18;18.50;99.00
41756;DHT22;27435;48.480;9.258;2022-08-19T06:09:44;18.50;99.00
41756;DHT22;27435;48.480;9.258;2022-08-19T06:12:11;18.40;99.00
41756;DHT22;27435;48.480;9.258;2022-08-19T06:14:37;18.60;99.00
41756;DHT22;27435;48.480;9.258;2022-08-19T06:17:02;18.60;99.00
41756;DHT22;27435;48.480;9.258;2022-08-19T06:19:29;18.50;99.00
41756;DHT22;27435;48.480;9.258;2022-08-19T06:21:57;18.50;99.00
41756;DHT22;27435;48.480;9.258;2022-08-19T06:24:26;18.40;99.00
41756;DHT22;27435;48.480;9.258;2022-08-19T06:26:53;18.30;99.00
41756;DHT22;27435;48.480;9.258;2022-08-19T06:29:21;18.20;99.00
41756;DHT22;27435;48.480;9.258;2022-08-19T06:31:50;18.20;99.00
41756;DHT22;27435;48.480;9.258;2022-08-19T06:34:17;18.30;99.00
41756;DHT22;27435;48.480;9.258;2022-08-19T06:36:46;18.10;99.00
41756;DHT22;27435;48.480;9.258;2022-08-19T06:39:15;18.00;99.00
41756;DHT22;27435;48.480;9.258;2022-08-19T06:41:44;17.90;99.00
41756;DHT22;27435;48.480;9.258;2022-08-19T06:44:10;18.10;99.00
41756;DHT22;27435;48.480;9.258;2022-08-19T06:46:37;18.10;99.00
41756;DHT22;27435;48.480;9.258;2022-08-19T06:49:04;18.20;99.00
41756;DHT22;27435;48.480;9.258;2022-08-19T06:51:29;18.10;99.00
41756;DHT22;27435;48.480;9.258;2022-08-19T06:53:57;18.10;99.00
41756;DHT22;27435;48.480;9.258;2022-08-19T06:56:26;18.00;99.00
41756;DHT22;27435;48.480;9.258;2022-08-19T06:59:07;18.00;99.00
41756;DHT22;27435;48.480;9.258;2022-08-19T07:01:48;18.10;99.00
41756;DHT22;27435;48.480;9.258;2022-08-19T07:04:17;18.00;99.00
41756;DHT22;27435;48.480;9.258;2022-08-19T07:06:44;17.80;99.00
41756;DHT22;27435;48.480;9.258;2022-08-19T07:09:14;17.80;99.00
41756;DHT22;27435;48.480;9.258;2022-08-19T07:11:47;17.80;99.00
41756;DHT22;27435;48.480;9.258;2022-08-19T07:14:14;17.80;99.00
41756;DHT22;27435;48.480;9.258;2022-08-19T07:16:41;17.90;99.00
41756;DHT22;27435;48.480;9.258;2022-08-19T07:19:07;17.90;99.00
41756;DHT22;27435;48.480;9.258;2022-08-19T07:21:32;17.90;99.00
41756;DHT22;27435;48.480;9.258;2022-08-19T07:23:59;17.90;99.00
41756;DHT22;27435;48.480;9.258;2022-08-19T07:26:28;17.90;99.00
41756;DHT22;27435;48.480;9.258;2022-08-19T07:28:54;18.00;99.00
41756;DHT22;27435;48.480;9.258;2022-08-19T07:31:22;17.90;99.00
41756;DHT22;27435;48.480;9.258;2022-08-19T07:33:51;17.80;99.00
41756;DHT22;27435;48.480;9.258;2022-08-19T07:36:20;17.80;99.00
41756;DHT22;27435;48.480;9.258;2022-08-19T07:38:48;17.90;99.00
41756;DHT22;27435;48.480;9.258;2022-08-19T07:41:19;18.00;99.00
41756;DHT22;27435;48.480;9.258;2022-08-19T07:43:45;17.90;99.00
41756;DHT22;27435;48.480;9.258;2022-08-19T07:46:11;18.10;99.00
41756;DHT22;27435;48.480;9.258;2022-08-19T07:48:41;18.00;99.00
41756;DHT22;27435;48.480;9.258;2022-08-19T07:51:08;18.10;99.00
41756;DHT22;27435;48.480;9.258;2022-08-19T07:53:35;18.00;99.00
41756;DHT22;27435;48.480;9.258;2022-08-19T07:56:02;17.90;99.00
41756;DHT22;27435;48.480;9.258;2022-08-19T07:58:32;17.80;99.00
41756;DHT22;27435;48.480;9.258;2022-08-19T08:00:59;17.80;99.00
41756;DHT22;27435;48.480;9.258;2022-08-19T08:03:26;17.90;99.00
41756;DHT22;27435;48.480;9.258;2022-08-19T08:06:21;17.80;99.00
41756;DHT22;27435;48.480;9.258;2022-08-19T08:09:06;17.80;99.00
41756;DHT22;27435;48.480;9.258;2022-08-19T08:11:57;17.90;99.00
41756;DHT22;27435;48.480;9.258;2022-08-19T08:14:28;18.00;99.00
41756;DHT22;27435;48.480;9.258;2022-08-19T08:16:54;17.90;99.00
41756;DHT22;27435;48.480;9.258;2022-08-19T08:19:22;18.00;99.00
41756;DHT22;27435;48.480;9.258;2022-08-19T08:21:48;17.80;99.00
41756;DHT22;27435;48.480;9.258;2022-08-19T08:24:15;17.70;99.00
41756;DHT22;27435;48.480;9.258;2022-08-19T08:26:41;17.70;99.00
41756;DHT22;27435;48.480;9.258;2022-08-19T08:29:12;17.80;99.00
41756;DHT22;27435;48.480;9.258;2022-08-19T08:31:40;17.80;99.00
41756;DHT22;27435;48.480;9.258;2022-08-19T08:34:06;17.80;99.00
41756;DHT22;27435;48.480;9.258;2022-08-19T08:36:32;17.80;99.00
41756;DHT22;27435;48.480;9.258;2022-08-19T08:38:59;17.90;99.00
41756;DHT22;27435;48.480;9.258;2022-08-19T08:41:47;17.90;99.00
41756;DHT22;27435;48.480;9.258;2022-08-19T08:44:20;17.80;99.00
41756;DHT22;27435;48.480;9.258;2022-08-19T08:46:53;17.80;99.00
41756;DHT22;27435;48.480;9.258;2022-08-19T08:52:13;18.00;99.00
41756;DHT22;27435;48.480;9.258;2022-08-19T08:54:43;17.90;99.00
41756;DHT22;27435;48.480;9.258;2022-08-19T08:57:32;18.00;99.00
41756;DHT22;27435;48.480;9.258;2022-08-19T09:00:02;18.00;99.00
41756;DHT22;27435;48.480;9.258;2022-08-19T09:02:30;18.00;99.00
41756;DHT22;27435;48.480;9.258;2022-08-19T09:04:56;18.00;99.00
41756;DHT22;27435;48.480;9.258;2022-08-19T09:10:44;17.90;99.00
41756;DHT22;27435;48.480;9.258;2022-08-19T09:16:20;18.20;99.00
41756;DHT22;27435;48.480;9.258;2022-08-19T09:18:49;18.20;99.00
41756;DHT22;27435;48.480;9.258;2022-08-19T09:21:18;18.10;99.00
41756;DHT22;27435;48.480;9.258;2022-08-19T09:23:43;18.00;99.00
41756;DHT22;27435;48.480;9.258;2022-08-19T09:26:11;18.00;99.00
41756;DHT22;27435;48.480;9.258;2022-08-19T09:28:40;18.00;99.00
41756;DHT22;27435;48.480;9.258;2022-08-19T09:31:13;18.00;99.00
41756;DHT22;27435;48.480;9.258;2022-08-19T09:33:39;18.00;99.00
41756;DHT22;27435;48.480;9.258;2022-08-19T09:36:07;18.00;99.00
41756;DHT22;27435;48.480;9.258;2022-08-19T09:38:34;17.90;99.00
41756;DHT22;27435;48.480;9.258;2022-08-19T09:41:04;17.90;99.00
41756;DHT22;27435;48.480;9.258;2022-08-19T09:43:31;17.90;99.00
41756;DHT22;27435;48.480;9.258;2022-08-19T09:45:57;17.90;99.00
41756;DHT22;27435;48.480;9.258;2022-08-19T09:48:23;18.00;99.00
41756;DHT22;27435;48.480;9.258;2022-08-19T09:50:48;18.10;99.00
41756;DHT22;27435;48.480;9.258;2022-08-19T09:53:16;18.10;99.00
41756;DHT22;27435;48.480;9.258;2022-08-19T09:55:45;18.20;99.00
41756;DHT22;27435;48.480;9.258;2022-08-19T09:58:10;18.30;99.00
41756;DHT22;27435;48.480;9.258;2022-08-19T10:00:37;18.20;99.00
41756;DHT22;27435;48.480;9.258;2022-08-19T10:03:03;18.10;99.00
41756;DHT22;27435;48.480;9.258;2022-08-19T10:05:29;18.10;99.00
41756;DHT22;27435;48.480;9.258;2022-08-19T10:08:14;18.10;99.00
41756;DHT22;27435;48.480;9.258;2022-08-19T10:10:44;18.10;99.00
41756;DHT22;27435;48.480;9.258;2022-08-19T10:13:10;18.20;99.00
41756;DHT22;27435;48.480;9.258;2022-08-19T10:15:36;18.20;99.00
41756;DHT22;27435;48.480;9.258;2022-08-19T10:18:05;18.10;99.00
41756;DHT22;27435;48.480;9.258;2022-08-19T10:20:31;18.20;99.00
41756;DHT22;27435;48.480;9.258;2022-08-19T10:22:56;18.30;99.00
41756;DHT22;27435;48.480;9.258;2022-08-19T10:25:24;18.40;99.00
41756;DHT22;27435;48.480;9.258;2022-08-19T10:27:52;18.40;99.00
41756;DHT22;27435;48.480;9.258;2022-08-19T10:30:18;18.40;99.00
41756;DHT22;27435;48.480;9.258;2022-08-19T10:32:44;18.50;99.00
41756;DHT22;27435;48.480;9.258;2022-08-19T10:35:12;18.50;99.00
41756;DHT22;27435;48.480;9.258;2022-08-19T10:37:39;18.40;99.00
41756;DHT22;27435;48.480;9.258;2022-08-19T10:40:06;18.40;99.00
41756;DHT22;27435;48.480;9.258;2022-08-19T10:42:36;18.40;99.00
41756;DHT22;27435;48.480;9.258;2022-08-19T10:45:03;18.50;99.00
41756;DHT22;27435;48.480;9.258;2022-08-19T10:47:32;18.50;99.00
41756;DHT22;27435;48.480;9.258;2022-08-19T10:49:58;18.60;99.00
41756;DHT22;27435;48.480;9.258;2022-08-19T10:52:45;18.60;99.00
41756;DHT22;27435;48.480;9.258;2022-08-19T10:55:11;18.50;99.00
41756;DHT22;27435;48.480;9.258;2022-08-19T10:57:56;18.50;99.00
41756;DHT22;27435;48.480;9.258;2022-08-19T11:00:23;18.50;99.00
41756;DHT22;27435;48.480;9.258;2022-08-19T11:02:49;18.50;99.00
41756;DHT22;27435;48.480;9.258;2022-08-19T11:05:16;18.50;99.00
41756;DHT22;27435;48.480;9.258;2022-08-19T11:07:42;18.40;99.00
41756;DHT22;27435;48.480;9.258;2022-08-19T11:10:12;18.40;99.00
41756;DHT22;27435;48.480;9.258;2022-08-19T11:12:39;18.40;99.00
41756;DHT22;27435;48.480;9.258;2022-08-19T11:15:09;18.40;99.00
41756;DHT22;27435;48.480;9.258;2022-08-19T11:17:40;18.40;99.00
41756;DHT22;27435;48.480;9.258;2022-08-19T11:20:08;18.40;99.00
41756;DHT22;27435;48.480;9.258;2022-08-19T11:22:34;18.30;99.00
41756;DHT22;27435;48.480;9.258;2022-08-19T11:25:00;18.20;99.00
41756;DHT22;27435;48.480;9.258;2022-08-19T11:27:26;18.20;99.00
41756;DHT22;27435;48.480;9.258;2022-08-19T11:29:51;18.20;99.00
41756;DHT22;27435;48.480;9.258;2022-08-19T11:32:18;18.20;99.00
41756;DHT22;27435;48.480;9.258;2022-08-19T11:34:43;18.10;99.00
41756;DHT22;27435;48.480;9.258;2022-08-19T11:37:09;18.10;99.00
41756;DHT22;27435;48.480;9.258;2022-08-19T11:39:35;18.20;99.00
41756;DHT22;27435;48.480;9.258;2022-08-19T11:42:03;18.30;99.00
41756;DHT22;27435;48.480;9.258;2022-08-19T11:44:49;18.20;99.00
41756;DHT22;27435;48.480;9.258;2022-08-19T11:47:15;18.10;99.00
41756;DHT22;27435;48.480;9.258;2022-08-19T11:49:40;18.20;99.00
41756;DHT22;27435;48.480;9.258;2022-08-19T11:52:07;18.10;99.00
41756;DHT22;27435;48.480;9.258;2022-08-19T11:54:33;18.10;99.00
41756;DHT22;27435;48.480;9.258;2022-08-19T11:56:59;17.90;99.00
41756;DHT22;27435;48.480;9.258;2022-08-19T11:59:26;18.00;99.00
41756;DHT22;27435;48.480;9.258;2022-08-19T12:01:52;18.00;99.00
41756;DHT22;27435;48.480;9.258;2022-08-19T12:04:18;18.00;99.00
41756;DHT22;27435;48.480;9.258;2022-08-19T12:06:43;17.90;99.00
41756;DHT22;27435;48.480;9.258;2022-08-19T12:09:10;18.00;99.00
41756;DHT22;27435;48.480;9.258;2022-08-19T12:11:37;18.10;99.00
41756;DHT22;27435;48.480;9.258;2022-08-19T12:14:03;18.10;99.00
41756;DHT22;27435;48.480;9.258;2022-08-19T12:16:30;18.10;99.00
41756;DHT22;27435;48.480;9.258;2022-08-19T12:18:58;18.10;99.00
41756;DHT22;27435;48.480;9.258;2022-08-19T12:21:29;18.30;99.00
41756;DHT22;27435;48.480;9.258;2022-08-19T12:23:57;18.30;99.00
41756;DHT22;27435;48.480;9.258;2022-08-19T12:26:24;18.20;99.00
41756;DHT22;27435;48.480;9.258;2022-08-19T12:28:50;18.00;99.00
41756;DHT22;27435;48.480;9.258;2022-08-19T12:31:15;18.10;99.00
41756;DHT22;27435;48.480;9.258;2022-08-19T12:33:42;18.10;99.00
41756;DHT22;27435;48.480;9.258;2022-08-19T12:36:11;18.10;99.00
41756;DHT22;27435;48.480;9.258;2022-08-19T12:38:38;18.30;99.00
41756;DHT22;27435;48.480;9.258;2022-08-19T12:41:05;18.40;99.00
41756;DHT22;27435;48.480;9.258;2022-08-19T12:43:33;18.40;99.00
41756;DHT22;27435;48.480;9.258;2022-08-19T12:46:00;18.50;99.00
41756;DHT22;27435;48.480;9.258;2022-08-19T12:48:25;18.70;99.00
41756;DHT22;27435;48.480;9.258;2022-08-19T12:50:51;18.70;99.00
41756;DHT22;27435;48.480;9.258;2022-08-19T12:53:17;18.80;99.00
41756;DHT22;27435;48.480;9.258;2022-08-19T12:55:43;18.90;99.00
41756;DHT22;27435;48.480;9.258;2022-08-19T12:58:09;18.70;99.00
41756;DHT22;27435;48.480;9.258;2022-08-19T13:00:34;18.60;99.00
41756;DHT22;27435;48.480;9.258;2022-08-19T13:03:00;18.50;99.00
41756;DHT22;27435;48.480;9.258;2022-08-19T13:05:29;18.50;99.00
41756;DHT22;27435;48.480;9.258;2022-08-19T13:07:56;18.60;99.00
41756;DHT22;27435;48.480;9.258;2022-08-19T13:10:24;18.70;99.00
41756;DHT22;27435;48.480;9.258;2022-08-19T13:12:51;18.80;99.00
41756;DHT22;27435;48.480;9.258;2022-08-19T13:15:18;18.90;99.00
41756;DHT22;27435;48.480;9.258;2022-08-19T13:17:49;18.80;99.00
41756;DHT22;27435;48.480;9.258;2022-08-19T13:20:16;18.80;99.00
41756;DHT22;27435;48.480;9.258;2022-08-19T13:22:43;19.00;99.00
41756;DHT22;27435;48.480;9.258;2022-08-19T13:25:11;19.30;99.00
41756;DHT22;27435;48.480;9.258;2022-08-19T13:27:37;19.50;99.00
41756;DHT22;27435;48.480;9.258;2022-08-19T13:30:05;19.60;99.00
41756;DHT22;27435;48.480;9.258;2022-08-19T13:32:50;19.80;99.00
41756;DHT22;27435;48.480;9.258;2022-08-19T13:35:34;19.80;99.00
41756;DHT22;27435;48.480;9.258;2022-08-19T13:38:00;19.90;99.00
41756;DHT22;27435;48.480;9.258;2022-08-19T13:40:31;19.80;99.00
41756;DHT22;27435;48.480;9.258;2022-08-19T13:43:00;19.60;99.00
41756;DHT22;27435;48.480;9.258;2022-08-19T13:45:28;19.60;99.00
41756;DHT22;27435;48.480;9.258;2022-08-19T13:47:56;19.60;99.00
41756;DHT22;27435;48.480;9.258;2022-08-19T13:50:25;19.60;99.00
41756;DHT22;27435;48.480;9.258;2022-08-19T13:52:52;19.70;99.00
41756;DHT22;27435;48.480;9.258;2022-08-19T13:55:18;19.70;99.00
41756;DHT22;27435;48.480;9.258;2022-08-19T13:57:43;19.60;99.00
41756;DHT22;27435;48.480;9.258;2022-08-19T14:00:13;19.40;99.00
41756;DHT22;27435;48.480;9.258;2022-08-19T14:02:40;19.30;99.00
41756;DHT22;27435;48.480;9.258;2022-08-19T14:05:09;19.30;99.00
41756;DHT22;27435;48.480;9.258;2022-08-19T14:07:36;19.40;99.00
41756;DHT22;27435;48.480;9.258;2022-08-19T14:10:04;19.50;99.00
41756;DHT22;27435;48.480;9.258;2022-08-19T14:12:30;19.40;99.00
41756;DHT22;27435;48.480;9.258;2022-08-19T14:14:57;19.50;99.00
41756;DHT22;27435;48.480;9.258;2022-08-19T14:17:23;19.40;99.00
41756;DHT22;27435;48.480;9.258;2022-08-19T14:19:48;19.30;99.00
41756;DHT22;27435;48.480;9.258;2022-08-19T14:22:14;19.20;99.00
41756;DHT22;27435;48.480;9.258;2022-08-19T14:24:40;19.20;99.00
41756;DHT22;27435;48.480;9.258;2022-08-19T14:27:06;19.30;99.00
41756;DHT22;27435;48.480;9.258;2022-08-19T14:29:32;19.30;99.00
41756;DHT22;27435;48.480;9.258;2022-08-19T14:31:58;19.30;99.00
41756;DHT22;27435;48.480;9.258;2022-08-19T14:34:25;19.40;99.00
41756;DHT22;27435;48.480;9.258;2022-08-19T14:36:52;19.40;99.00
41756;DHT22;27435;48.480;9.258;2022-08-19T14:39:17;19.30;99.00
41756;DHT22;27435;48.480;9.258;2022-08-19T14:41:43;19.30;99.00
41756;DHT22;27435;48.480;9.258;2022-08-19T14:44:11;19.20;99.00
41756;DHT22;27435;48.480;9.258;2022-08-19T14:46:38;19.20;99.00
41756;DHT22;27435;48.480;9.258;2022-08-19T14:49:05;19.10;99.00
41756;DHT22;27435;48.480;9.258;2022-08-19T14:51:31;19.10;99.00
41756;DHT22;27435;48.480;9.258;2022-08-19T14:53:57;19.00;99.00
41756;DHT22;27435;48.480;9.258;2022-08-19T14:56:26;18.90;99.00
41756;DHT22;27435;48.480;9.258;2022-08-19T14:58:52;18.90;99.00
41756;DHT22;27435;48.480;9.258;2022-08-19T15:01:19;18.80;99.00
41756;DHT22;27435;48.480;9.258;2022-08-19T15:03:47;18.80;99.00
41756;DHT22;27435;48.480;9.258;2022-08-19T15:06:12;18.80;99.00
41756;DHT22;27435;48.480;9.258;2022-08-19T15:08:40;18.80;99.00
41756;DHT22;27435;48.480;9.258;2022-08-19T15:11:11;18.70;99.00
41756;DHT22;27435;48.480;9.258;2022-08-19T15:13:37;18.70;99.00
41756;DHT22;27435;48.480;9.258;2022-08-19T15:16:04;18.70;99.00
41756;DHT22;27435;48.480;9.258;2022-08-19T15:18:30;18.70;99.00
41756;DHT22;27435;48.480;9.258;2022-08-19T15:20:56;18.80;99.00
41756;DHT22;27435;48.480;9.258;2022-08-19T15:23:22;18.80;99.00
41756;DHT22;27435;48.480;9.258;2022-08-19T15:25:48;18.90;99.00
41756;DHT22;27435;48.480;9.258;2022-08-19T15:28:14;18.90;99.00
41756;DHT22;27435;48.480;9.258;2022-08-19T15:30:42;19.00;99.00
41756;DHT22;27435;48.480;9.258;2022-08-19T15:33:10;19.10;99.00
41756;DHT22;27435;48.480;9.258;2022-08-19T15:35:40;19.20;99.00
41756;DHT22;27435;48.480;9.258;2022-08-19T15:38:07;19.30;99.00
41756;DHT22;27435;48.480;9.258;2022-08-19T15:40:33;19.40;99.00
41756;DHT22;27435;48.480;9.258;2022-08-19T15:42:59;19.60;99.00
41756;DHT22;27435;48.480;9.258;2022-08-19T15:45:25;19.80;99.00
41756;DHT22;27435;48.480;9.258;2022-08-19T15:47:53;19.90;99.00